EST,Max TemperatureF,Mean TemperatureF,Min TemperatureF,Max Dew PointF,MeanDew PointF,Min DewpointF,Max Humidity, Mean Humidity, Min Humidity, Max Sea Level PressureIn, Mean Sea Level PressureIn, Min Sea Level PressureIn, Max VisibilityMiles, Mean VisibilityMiles, Min VisibilityMiles, Max Wind SpeedMPH, Mean Wind SpeedMPH, Max Gust SpeedMPH,PrecipitationIn, CloudCover, Events, WindDirDegrees
2012-11-1,57,50,44,54,45,39,88,80,67,29.49,29.44,29.40,10,8,2,16,7,22,0.17,6,,169
2012-11-2,50,46,42,43,40,37,93,82,66,29.47,29.42,29.39,10,8,0,6,1,,0.02,8,,272
2012-11-3,46,40,33,39,35,28,87,77,70,29.54,29.50,29.47,10,10,9,15,3,24,0.00,7,,273
2012-11-4,41,37,33,34,28,19,81,67,56,29.79,29.66,29.54,10,10,10,18,10,25,0.02,8,,314
2012-11-5,33,30,28,19,15,10,69,52,41,29.93,29.87,29.80,10,10,4,14,9,18,0.00,8,,319
2012-11-6,32,26,19,18,12,7,74,54,37,30.16,30.02,29.91,10,10,2,16,7,23,0.00,4,,266
2012-11-7,35,25,15,19,15,9,80,63,48,30.24,30.14,30.03,10,10,10,15,4,18,0.00,1,,15
2012-11-8,35,32,30,30,26,21,81,75,64,30.03,29.87,29.73,10,6,2,20,14,24,0.08,8,,1
2012-11-9,37,34,32,28,28,25,81,76,70,29.80,29.74,29.70,10,9,3,16,11,21,0.01,7,,302
2012-11-10,37,30,23,27,15,10,70,50,33,30.35,30.10,29.80,10,10,10,18,10,29,0.00,2,,288
2012-11-11,33,26,19,25,19,10,86,69,60,30.43,30.38,30.33,10,10,10,10,2,,0.00,4,,144
2012-11-12,55,44,33,48,38,27,93,73,54,30.33,30.22,30.06,10,8,0,21,7,28,0.00,5,,161
2012-11-13,60,44,28,54,39,25,87,79,72,30.32,30.09,29.93,10,9,4,26,14,36,0.14,5,,234
2012-11-14,37,29,21,25,21,18,86,70,52,30.49,30.46,30.34,10,10,10,13,4,16,0.00,1,,343
2012-11-15,32,24,17,23,19,12,86,73,64,30.48,30.37,30.25,10,10,10,9,2,,0.00,5,,13
2012-11-16,37,32,26,25,21,18,80,68,55,30.32,30.24,30.20,10,10,10,16,4,20,0.00,6,,306
2012-11-17,33,25,17,18,12,10,79,58,38,30.58,30.49,30.32,10,10,10,18,7,22,0.00,0,,323
2012-11-18,37,26,15,19,15,9,86,68,45,30.67,30.61,30.55,10,10,10,7,0,,0.00,0,,17
2012-11-19,44,30,15,21,16,10,86,68,37,30.54,30.36,30.17,10,10,10,8,1,,0.00,0,,222
2012-11-20,44,30,15,27,18,9,86,70,49,30.17,30.13,30.09,10,10,10,8,1,,0.00,0,,10
2012-11-21,37,28,19,32,24,12,93,80,74,30.26,30.19,30.14,10,9,4,9,1,,0.00,5,,137
2012-11-22,42,33,24,30,26,18,87,79,61,30.13,30.06,29.93,10,9,3,8,2,,0.00,0,,157
2012-11-23,48,40,32,36,32,28,87,76,53,29.93,29.75,29.54,10,8,1,16,7,22,0.00,3,,165
2012-11-24,42,36,30,39,32,19,87,79,64,29.54,29.35,29.20,10,10,2,18,5,25,0.03,8,,220
2012-11-25,30,27,24,19,12,9,69,53,43,29.45,29.28,29.18,10,10,10,25,16,34,0.00,6,,264
2012-11-26,28,22,17,10,8,7,68,52,40,30.05,29.74,29.45,10,10,10,18,12,29,0.00,3,,269
2012-11-27,26,18,8,10,7,1,85,65,43,30.21,30.17,30.05,10,10,10,9,2,,0.00,1,,246
2012-11-28,28,17,6,12,7,-2,79,68,43,30.20,30.09,29.95,10,10,10,5,1,,0.00,0,,311
2012-11-29,24,17,10,16,7,-4,86,62,39,30.06,29.93,29.87,10,9,2,18,6,26,0.00,5,,283
2012-11-30,19,10,1,1,-3,-8,85,57,42,30.48,30.29,30.07,10,10,10,16,8,23,0.00,0,,287